Time;durP1;ratioP1;P1;durP2;ratioP2;P2;SDS_P1;SDS_P2;PMS_P1;PMS_P2;Temp;Humidity;BMP_temperature;BMP_pressure;BME280_temperature;BME280_humidity;BME280_pressure;Samples;Min_cycle;Max_cycle;Signal;HPM_P1;HPM_P2
2023/02/17 00:01:21;;;;;;;10.95;3.78;;;10.10;80.60;;;;;;5013923;28;20030;-68
2023/02/17 00:03:51;;;;;;;9.20;3.40;;;10.10;80.50;;;;;;5017792;28;20030;-67
2023/02/17 00:06:21;;;;;;;8.45;3.60;;;10.10;80.40;;;;;;5015526;28;20034;-67
2023/02/17 00:08:47;;;;;;;8.95;3.47;;;10.20;80.30;;;;;;5015474;28;20022;-68
2023/02/17 00:11:16;;;;;;;10.68;3.45;;;10.20;80.60;;;;;;5015684;28;20022;-68
2023/02/17 00:13:42;;;;;;;12.60;3.25;;;10.20;80.80;;;;;;5016633;28;20112;-67
2023/02/17 00:16:10;;;;;;;12.30;3.58;;;10.20;80.90;;;;;;4998241;28;20117;-68
2023/02/17 00:18:36;;;;;;;10.05;3.80;;;10.30;80.90;;;;;;5017625;28;20044;-68
2023/02/17 00:21:16;;;;;;;10.32;3.50;;;10.30;80.90;;;;;;5015031;28;20068;-67
2023/02/17 00:23:43;;;;;;;10.20;3.40;;;10.20;81.20;;;;;;4999819;28;20034;-68
2023/02/17 00:26:10;;;;;;;9.73;3.75;;;10.20;81.10;;;;;;5015186;28;20075;-68
2023/02/17 00:28:36;;;;;;;11.27;3.45;;;10.20;81.30;;;;;;5005281;28;20026;-68
2023/02/17 00:31:09;;;;;;;9.48;3.75;;;10.20;81.20;;;;;;5015380;28;20029;-67
2023/02/17 00:33:38;;;;;;;12.32;3.95;;;10.20;81.00;;;;;;5015745;28;20113;-67
2023/02/17 00:36:10;;;;;;;7.70;3.60;;;10.20;81.10;;;;;;5016275;28;20045;-67
2023/02/17 00:38:36;;;;;;;9.48;4.15;;;10.20;81.00;;;;;;5014272;28;20045;-67
2023/02/17 00:41:01;;;;;;;10.32;3.63;;;10.30;80.90;;;;;;5017111;28;20033;-67
2023/02/17 00:43:27;;;;;;;15.88;3.72;;;10.20;80.90;;;;;;5014451;28;20037;-68
2023/02/17 00:45:53;;;;;;;10.73;3.90;;;10.20;81.10;;;;;;5015262;28;20025;-68
2023/02/17 00:48:18;;;;;;;12.35;4.40;;;10.10;81.40;;;;;;4996285;28;20088;-68
2023/02/17 00:50:45;;;;;;;10.38;3.85;;;10.10;81.10;;;;;;5015006;28;20321;-68
2023/02/17 00:53:10;;;;;;;7.93;3.72;;;10.10;81.10;;;;;;5014862;28;20053;-67
2023/02/17 00:55:36;;;;;;;10.20;3.92;;;10.10;80.80;;;;;;5015825;28;20034;-66
2023/02/17 00:58:02;;;;;;;14.57;3.95;;;10.10;81.20;;;;;;5013066;28;20060;-68
2023/02/17 01:00:27;;;;;;;11.60;3.58;;;10.00;81.20;;;;;;5014380;28;20030;-68
2023/02/17 01:02:53;;;;;;;11.85;3.72;;;10.10;81.30;;;;;;5015032;28;20080;-68
2023/02/17 01:05:18;;;;;;;13.13;3.78;;;10.10;81.30;;;;;;5015030;28;20033;-67
2023/02/17 01:07:44;;;;;;;13.52;3.88;;;10.00;81.40;;;;;;5014910;28;20030;-68
2023/02/17 01:10:10;;;;;;;10.30;3.80;;;10.00;81.60;;;;;;5010837;28;20438;-68
2023/02/17 01:12:36;;;;;;;12.38;4.15;;;10.00;81.70;;;;;;5014556;28;20022;-67
2023/02/17 01:15:02;;;;;;;11.93;3.60;;;9.90;81.70;;;;;;5012204;28;20021;-67
2023/02/17 01:17:28;;;;;;;12.75;3.95;;;9.90;81.90;;;;;;5015488;28;20037;-67
2023/02/17 01:19:53;;;;;;;10.65;3.60;;;9.90;81.90;;;;;;5013366;28;20045;-67
2023/02/17 01:22:19;;;;;;;10.40;4.15;;;9.90;81.90;;;;;;5015226;28;20029;-68
2023/02/17 01:24:45;;;;;;;12.32;3.78;;;10.00;81.70;;;;;;5014969;28;20061;-69
2023/02/17 01:27:10;;;;;;;16.02;4.35;;;10.00;81.70;;;;;;5015863;28;20014;-68
2023/02/17 01:29:36;;;;;;;10.40;3.50;;;9.90;82.00;;;;;;5013463;28;20056;-68
2023/02/17 01:32:01;;;;;;;10.43;3.85;;;9.90;82.00;;;;;;5013291;28;20079;-67
2023/02/17 01:34:27;;;;;;;18.00;4.00;;;10.00;82.00;;;;;;4996559;28;20038;-68
2023/02/17 01:36:53;;;;;;;19.05;4.55;;;10.00;81.80;;;;;;5010842;28;20033;-68
2023/02/17 01:39:18;;;;;;;10.07;3.67;;;10.00;81.90;;;;;;5013728;28;20026;-68
2023/02/17 01:41:44;;;;;;;9.07;4.03;;;10.00;82.00;;;;;;5015474;28;20040;-67
2023/02/17 01:44:19;;;;;;;11.32;5.13;;;10.00;82.00;;;;;;5013539;28;20021;-67
2023/02/17 01:46:48;;;;;;;10.60;4.10;;;10.00;82.00;;;;;;5012709;28;20080;-67
2023/02/17 01:49:38;;;;;;;11.32;3.80;;;10.00;82.20;;;;;;5013180;28;20434;-68
2023/02/17 01:52:17;;;;;;;12.02;3.90;;;10.00;82.40;;;;;;5011764;28;20026;-67
2023/02/17 01:54:58;;;;;;;11.55;3.85;;;10.00;82.70;;;;;;5011282;28;20046;-67
2023/02/17 01:57:29;;;;;;;14.65;4.05;;;10.00;82.60;;;;;;5011919;28;20032;-67
2023/02/17 01:59:54;;;;;;;13.32;4.03;;;10.00;82.80;;;;;;5008680;28;20037;-67
2023/02/17 02:02:21;;;;;;;9.88;4.10;;;10.00;83.00;;;;;;5013534;28;20080;-68
2023/02/17 02:04:50;;;;;;;12.35;4.20;;;9.90;83.40;;;;;;5011674;28;20061;-68
2023/02/17 02:07:38;;;;;;;10.65;4.00;;;9.90;83.50;;;;;;5012983;28;20033;-68
2023/02/17 02:10:04;;;;;;;8.45;3.35;;;9.90;83.80;;;;;;5012422;28;20053;-67
2023/02/17 02:12:34;;;;;;;9.60;4.43;;;9.90;84.10;;;;;;4996188;28;20030;-67
2023/02/17 02:15:13;;;;;;;12.45;3.90;;;9.90;84.40;;;;;;5007967;28;20025;-68
2023/02/17 02:18:08;;;;;;;11.88;3.60;;;10.00;84.60;;;;;;5013011;28;20030;-68
2023/02/17 02:20:58;;;;;;;9.75;3.67;;;10.00;84.80;;;;;;5010938;28;20073;-68
2023/02/17 02:23:50;;;;;;;10.48;3.28;;;10.00;85.20;;;;;;5006025;28;20117;-68
2023/02/17 02:26:37;;;;;;;12.20;4.35;;;10.10;85.50;;;;;;5013657;28;20034;-67
2023/02/17 02:29:33;;;;;;;9.20;3.95;;;10.00;85.70;;;;;;5012163;28;20030;-66
2023/02/17 02:32:19;;;;;;;11.52;4.05;;;10.10;86.00;;;;;;5013924;28;20109;-67
2023/02/17 02:34:50;;;;;;;10.55;4.47;;;10.10;85.60;;;;;;4990503;28;20398;-67
2023/02/17 02:37:25;;;;;;;8.85;3.70;;;10.10;85.70;;;;;;5013147;28;20030;-66
2023/02/17 02:39:52;;;;;;;10.98;4.32;;;10.00;86.10;;;;;;5012831;28;20022;-66
2023/02/17 02:42:22;;;;;;;12.18;4.30;;;10.00;86.20;;;;;;5012975;28;20037;-66
2023/02/17 02:44:48;;;;;;;9.10;3.90;;;10.00;86.40;;;;;;5011566;28;20022;-66
2023/02/17 02:47:33;;;;;;;13.82;4.38;;;9.90;86.90;;;;;;4995504;28;20042;-66
2023/02/17 02:49:59;;;;;;;9.93;3.38;;;9.90;87.10;;;;;;5014430;28;20026;-67
2023/02/17 02:52:42;;;;;;;11.25;3.97;;;9.90;87.20;;;;;;5009798;28;20100;-67
2023/02/17 02:55:37;;;;;;;10.88;3.65;;;9.90;87.20;;;;;;5010322;28;20049;-67
2023/02/17 02:58:19;;;;;;;12.20;4.45;;;9.80;87.60;;;;;;5013687;28;20104;-67
2023/02/17 03:01:02;;;;;;;10.85;3.80;;;9.80;87.80;;;;;;5011005;28;20045;-67
2023/02/17 03:03:53;;;;;;;13.98;4.20;;;9.80;87.80;;;;;;5013162;28;20327;-67
2023/02/17 03:06:26;;;;;;;15.38;4.32;;;9.80;87.80;;;;;;5007698;28;20029;-67
2023/02/17 03:08:57;;;;;;;12.37;3.70;;;9.80;87.80;;;;;;5018505;28;20072;-68
2023/02/17 03:11:33;;;;;;;9.30;3.67;;;9.80;88.00;;;;;;5017597;28;20273;-67
2023/02/17 03:14:04;;;;;;;8.23;3.33;;;9.80;88.20;;;;;;5017361;28;20061;-66
2023/02/17 03:16:30;;;;;;;8.82;4.32;;;9.80;87.90;;;;;;5016651;28;20030;-67
2023/02/17 03:18:56;;;;;;;9.95;4.38;;;9.80;88.00;;;;;;5018382;28;20109;-66
2023/02/17 03:21:22;;;;;;;10.45;3.60;;;9.70;88.30;;;;;;5015611;28;20104;-69
2023/02/17 03:23:48;;;;;;;10.80;4.18;;;9.70;88.40;;;;;;5017319;28;20057;-67
2023/02/17 03:26:16;;;;;;;9.05;3.70;;;9.70;88.30;;;;;;5016246;28;21099;-67
2023/02/17 03:28:42;;;;;;;10.02;3.45;;;9.70;88.50;;;;;;5016880;28;20022;-67
2023/02/17 03:31:07;;;;;;;8.40;4.15;;;9.60;88.70;;;;;;5005395;28;20379;-68
2023/02/17 03:33:33;;;;;;;11.77;4.55;;;9.60;88.80;;;;;;5017302;28;20037;-67
2023/02/17 03:35:58;;;;;;;8.55;3.45;;;9.60;89.10;;;;;;5013603;28;20080;-67
2023/02/17 03:38:24;;;;;;;7.70;3.75;;;9.60;89.00;;;;;;5017814;28;20113;-67
2023/02/17 03:40:52;;;;;;;10.25;3.70;;;9.60;88.60;;;;;;5015350;28;20046;-69
2023/02/17 03:43:18;;;;;;;9.85;3.28;;;9.60;88.20;;;;;;5014978;28;20453;-69
2023/02/17 03:45:43;;;;;;;8.10;3.50;;;9.60;88.20;;;;;;5012785;28;20034;-68
2023/02/17 03:48:09;;;;;;;6.15;3.40;;;9.60;88.20;;;;;;5015494;28;20422;-67
2023/02/17 03:50:34;;;;;;;10.73;3.63;;;9.60;88.20;;;;;;5014665;28;20477;-67
2023/02/17 03:53:00;;;;;;;6.90;2.90;;;9.60;88.20;;;;;;5015539;28;20029;-68
2023/02/17 03:55:26;;;;;;;8.68;3.33;;;9.60;88.20;;;;;;5010661;28;20045;-66
2023/02/17 03:57:51;;;;;;;6.65;3.25;;;9.70;88.20;;;;;;5016177;28;20081;-67
2023/02/17 04:00:17;;;;;;;12.65;3.25;;;9.70;88.40;;;;;;5014084;28;20030;-67
2023/02/17 04:02:43;;;;;;;11.13;3.95;;;9.80;88.50;;;;;;5015180;28;20419;-68
2023/02/17 04:05:08;;;;;;;10.65;4.30;;;9.80;88.50;;;;;;5014536;28;20022;-67
2023/02/17 04:07:34;;;;;;;9.65;3.60;;;9.70;88.70;;;;;;5015080;28;20040;-66
2023/02/17 04:09:59;;;;;;;12.93;4.15;;;9.70;89.10;;;;;;5014207;28;20430;-67
2023/02/17 04:12:25;;;;;;;7.60;3.58;;;9.60;89.60;;;;;;5016133;28;20104;-68
2023/02/17 04:14:50;;;;;;;9.50;3.97;;;9.60;89.90;;;;;;5012218;28;20053;-67
2023/02/17 04:17:16;;;;;;;10.13;4.55;;;9.40;90.20;;;;;;5015162;28;20030;-67
2023/02/17 04:19:42;;;;;;;9.93;4.32;;;9.40;91.00;;;;;;5012226;28;20036;-68
2023/02/17 04:22:07;;;;;;;9.65;4.07;;;9.30;91.30;;;;;;5013741;28;20123;-68
2023/02/17 04:24:36;;;;;;;10.85;3.67;;;9.30;91.80;;;;;;5013777;28;20026;-67
2023/02/17 04:27:04;;;;;;;9.05;4.05;;;9.30;91.90;;;;;;5010180;28;20029;-67
2023/02/17 04:29:31;;;;;;;10.32;4.30;;;9.20;92.20;;;;;;5011883;28;20112;-68
2023/02/17 04:31:56;;;;;;;10.02;4.47;;;9.10;92.40;;;;;;5015521;28;20414;-68
2023/02/17 04:34:22;;;;;;;13.75;4.30;;;9.10;92.40;;;;;;5012894;28;20040;-67
2023/02/17 04:36:48;;;;;;;9.43;4.25;;;9.00;92.50;;;;;;5010051;28;20091;-67
2023/02/17 04:39:19;;;;;;;7.68;3.85;;;9.00;92.40;;;;;;5014382;28;20068;-66
2023/02/17 04:41:45;;;;;;;8.35;3.42;;;9.10;92.70;;;;;;5012983;28;20327;-67
2023/02/17 04:44:11;;;;;;;13.55;3.55;;;9.10;92.50;;;;;;5012754;28;20056;-67
2023/02/17 04:46:37;;;;;;;8.68;3.60;;;9.30;92.40;;;;;;5011911;28;20030;-67
2023/02/17 04:49:02;;;;;;;10.07;4.10;;;9.30;92.40;;;;;;5013928;28;20326;-67
2023/02/17 04:51:28;;;;;;;9.20;3.67;;;9.20;92.70;;;;;;5015380;28;20084;-67
2023/02/17 04:53:54;;;;;;;10.98;3.40;;;9.20;92.70;;;;;;4994541;28;20081;-67
2023/02/17 04:56:19;;;;;;;8.20;3.40;;;9.20;92.60;;;;;;5021284;28;20036;-67
2023/02/17 04:58:45;;;;;;;8.40;3.30;;;9.20;92.80;;;;;;5012122;28;20133;-69
2023/02/17 05:01:10;;;;;;;8.70;3.60;;;9.20;92.70;;;;;;5012570;28;20041;-67
2023/02/17 05:03:36;;;;;;;6.80;3.33;;;9.30;92.40;;;;;;5020912;28;20087;-68
2023/02/17 05:06:01;;;;;;;8.02;3.60;;;9.30;92.10;;;;;;5014102;28;20033;-68
2023/02/17 05:08:27;;;;;;;10.40;3.67;;;9.40;91.40;;;;;;5012441;28;20030;-67
2023/02/17 05:10:52;;;;;;;6.72;2.97;;;9.30;91.40;;;;;;5011296;28;20053;-67
2023/02/17 05:13:18;;;;;;;8.18;3.17;;;9.30;91.20;;;;;;5012762;28;20030;-67
2023/02/17 05:15:44;;;;;;;9.65;2.85;;;9.30;90.90;;;;;;5013093;28;20136;-68
2023/02/17 05:18:10;;;;;;;9.48;3.22;;;9.30;90.80;;;;;;5013749;28;20415;-67
2023/02/17 05:20:36;;;;;;;11.60;3.00;;;9.30;90.70;;;;;;5014320;28;20030;-67
2023/02/17 05:23:02;;;;;;;5.85;2.58;;;9.30;90.60;;;;;;5013388;28;20030;-68
2023/02/17 05:25:27;;;;;;;12.82;3.50;;;9.30;89.60;;;;;;5014515;28;20097;-68
2023/02/17 05:27:53;;;;;;;8.98;2.72;;;9.30;89.30;;;;;;5014471;28;20109;-68
2023/02/17 05:30:19;;;;;;;8.73;3.17;;;9.20;88.90;;;;;;5012834;28;20022;-68
2023/02/17 05:32:44;;;;;;;8.93;2.47;;;9.20;88.20;;;;;;5013212;28;20029;-68
2023/02/17 05:35:10;;;;;;;6.68;2.40;;;9.30;87.50;;;;;;5015038;28;20034;-66
2023/02/17 05:37:36;;;;;;;6.65;2.30;;;9.20;87.40;;;;;;5011813;28;20037;-67
2023/02/17 05:40:01;;;;;;;6.32;2.78;;;9.30;86.70;;;;;;5013295;28;20156;-66
2023/02/17 05:42:30;;;;;;;6.47;2.92;;;9.30;85.90;;;;;;5013119;28;20124;-66
2023/02/17 05:44:55;;;;;;;6.75;2.60;;;9.30;86.00;;;;;;5012916;28;21117;-68
2023/02/17 05:47:22;;;;;;;6.90;2.15;;;9.30;86.00;;;;;;5013306;28;20026;-67
2023/02/17 05:49:50;;;;;;;8.50;2.50;;;9.40;85.40;;;;;;5011961;28;20101;-67
2023/02/17 05:52:17;;;;;;;6.78;2.40;;;9.40;85.50;;;;;;5010931;28;20419;-68
2023/02/17 05:54:45;;;;;;;6.80;2.42;;;9.50;85.40;;;;;;5013117;28;20357;-68
2023/02/17 05:57:17;;;;;;;5.93;2.60;;;9.50;85.60;;;;;;5013533;28;20022;-67
2023/02/17 05:59:42;;;;;;;6.68;2.70;;;9.50;85.50;;;;;;5009295;28;20041;-67
2023/02/17 06:02:11;;;;;;;8.75;2.50;;;9.40;85.70;;;;;;5010424;28;20026;-67
2023/02/17 06:04:36;;;;;;;8.45;2.65;;;9.40;85.50;;;;;;5012211;28;20026;-67
2023/02/17 06:07:02;;;;;;;7.97;2.63;;;9.40;85.20;;;;;;5012042;28;20026;-68
2023/02/17 06:09:28;;;;;;;8.63;2.95;;;9.40;85.30;;;;;;5013334;28;20318;-67
2023/02/17 06:11:53;;;;;;;7.88;2.60;;;9.40;85.50;;;;;;5012832;28;20033;-67
2023/02/17 06:14:19;;;;;;;6.53;2.55;;;9.30;85.90;;;;;;5011538;28;20022;-67
2023/02/17 06:16:47;;;;;;;6.30;2.45;;;9.40;85.80;;;;;;5008785;28;20445;-68
2023/02/17 06:19:12;;;;;;;5.70;2.53;;;9.40;85.80;;;;;;5013600;28;20084;-68
2023/02/17 06:21:38;;;;;;;6.22;2.55;;;9.40;85.80;;;;;;5013367;28;20334;-68
2023/02/17 06:24:04;;;;;;;6.72;2.75;;;9.50;85.90;;;;;;5013089;28;20030;-67
2023/02/17 06:26:29;;;;;;;9.02;3.08;;;9.50;86.20;;;;;;5012791;28;20072;-67
2023/02/17 06:28:55;;;;;;;8.15;2.72;;;9.50;86.20;;;;;;5013852;28;20081;-68
2023/02/17 06:31:21;;;;;;;10.07;3.20;;;9.50;86.30;;;;;;5011108;28;20322;-67
2023/02/17 06:33:46;;;;;;;7.05;2.80;;;9.50;86.50;;;;;;5013992;28;20300;-68
2023/02/17 06:36:12;;;;;;;10.40;2.88;;;9.50;86.70;;;;;;5013198;28;20048;-67
2023/02/17 06:38:38;;;;;;;7.53;2.88;;;9.50;86.90;;;;;;5015476;28;20141;-67
2023/02/17 06:41:04;;;;;;;8.10;3.08;;;9.50;87.10;;;;;;5013051;28;20110;-68
2023/02/17 06:43:30;;;;;;;6.10;2.38;;;9.50;87.00;;;;;;4999831;28;20112;-68
2023/02/17 06:45:58;;;;;;;5.70;2.80;;;9.50;87.10;;;;;;5008153;28;20183;-68
2023/02/17 06:48:24;;;;;;;6.53;2.63;;;9.50;87.10;;;;;;5018628;28;20033;-69
2023/02/17 06:50:49;;;;;;;5.00;2.40;;;9.50;87.20;;;;;;5016423;28;20028;-68
2023/02/17 06:53:15;;;;;;;6.00;3.28;;;9.50;87.50;;;;;;5006228;28;20068;-67
2023/02/17 06:55:43;;;;;;;7.53;3.13;;;9.50;87.50;;;;;;5006973;28;20022;-67
2023/02/17 06:58:09;;;;;;;11.30;3.65;;;9.50;87.50;;;;;;5017295;28;20458;-68
2023/02/17 07:00:34;;;;;;;7.47;3.00;;;9.50;87.60;;;;;;5016942;28;20034;-67
2023/02/17 07:03:00;;;;;;;7.75;2.80;;;9.50;87.80;;;;;;5018559;28;20025;-69
2023/02/17 07:05:25;;;;;;;9.73;3.67;;;9.50;87.80;;;;;;5017926;28;20036;-67
2023/02/17 07:07:52;;;;;;;6.88;3.35;;;9.50;87.70;;;;;;5015292;28;20034;-68
2023/02/17 07:10:18;;;;;;;6.93;3.08;;;9.50;87.80;;;;;;5015730;28;20299;-67
2023/02/17 07:12:44;;;;;;;7.85;3.25;;;9.40;88.00;;;;;;5013739;28;20034;-68
2023/02/17 07:15:09;;;;;;;8.13;3.50;;;9.40;88.20;;;;;;5011975;28;20573;-68
2023/02/17 07:17:35;;;;;;;9.07;2.70;;;9.50;88.20;;;;;;5016768;28;20435;-68
2023/02/17 07:20:00;;;;;;;6.80;3.28;;;9.40;88.60;;;;;;5001453;28;20407;-68
2023/02/17 07:22:26;;;;;;;5.72;3.35;;;9.40;88.80;;;;;;5001304;28;20773;-67
2023/02/17 07:24:54;;;;;;;10.50;4.80;;;9.50;88.60;;;;;;5007197;28;20022;-67
2023/02/17 07:27:20;;;;;;;5.50;3.00;;;9.50;88.80;;;;;;5015298;28;20033;-68
2023/02/17 07:29:45;;;;;;;8.02;3.10;;;9.60;89.10;;;;;;5016118;28;20022;-68
2023/02/17 07:32:11;;;;;;;9.82;3.53;;;9.60;89.00;;;;;;5015604;28;20105;-70
2023/02/17 07:34:39;;;;;;;6.57;3.22;;;9.60;89.10;;;;;;5015552;28;20054;-68
2023/02/17 07:37:06;;;;;;;5.03;3.00;;;9.60;89.20;;;;;;5015076;28;21086;-68
2023/02/17 07:39:33;;;;;;;8.75;3.67;;;9.70;89.80;;;;;;5015266;28;20434;-68
2023/02/17 07:41:59;;;;;;;11.05;3.15;;;9.70;90.00;;;;;;5016124;28;20065;-68
2023/02/17 07:44:28;;;;;;;9.20;3.75;;;9.70;90.40;;;;;;5015355;28;20021;-68
2023/02/17 07:46:54;;;;;;;5.93;3.25;;;9.70;90.50;;;;;;5014782;28;20030;-68
2023/02/17 07:49:19;;;;;;;9.48;3.33;;;9.70;90.40;;;;;;5017581;28;20033;-68
2023/02/17 07:51:45;;;;;;;9.13;3.80;;;9.70;90.60;;;;;;5016556;28;20026;-67
2023/02/17 07:54:12;;;;;;;6.75;3.58;;;9.70;90.60;;;;;;5016199;28;20458;-68
2023/02/17 07:56:38;;;;;;;7.63;3.30;;;9.70;90.50;;;;;;5017180;28;20442;-67
2023/02/17 07:59:07;;;;;;;9.27;3.40;;;9.70;90.70;;;;;;5018407;28;20026;-68
2023/02/17 08:01:33;;;;;;;9.07;3.10;;;9.70;91.00;;;;;;5016510;28;20033;-67
2023/02/17 08:03:58;;;;;;;6.70;3.03;;;9.70;91.50;;;;;;5017357;28;20033;-68
2023/02/17 08:06:25;;;;;;;7.38;3.47;;;9.80;91.30;;;;;;5013480;28;20144;-66
2023/02/17 08:14:23;;;;;;;8.95;3.50;;;9.90;91.40;;;;;;5017119;28;20041;-68
2023/02/17 08:16:48;;;;;;;6.45;3.25;;;9.90;91.60;;;;;;5016636;28;20022;-67
2023/02/17 08:19:16;;;;;;;7.75;3.13;;;9.90;91.90;;;;;;5017650;28;20033;-67
2023/02/17 08:21:42;;;;;;;8.13;3.17;;;9.90;92.30;;;;;;5016223;28;20333;-67
2023/02/17 08:24:07;;;;;;;8.27;3.08;;;10.00;92.30;;;;;;5016700;28;20034;-67
2023/02/17 08:26:33;;;;;;;7.55;3.30;;;10.10;92.10;;;;;;5017903;28;20053;-67
2023/02/17 08:28:58;;;;;;;7.05;3.25;;;10.10;92.00;;;;;;4999817;28;20145;-66
2023/02/17 08:31:30;;;;;;;11.52;3.15;;;10.10;91.80;;;;;;5015720;28;20028;-66
2023/02/17 08:33:56;;;;;;;10.48;3.38;;;10.10;91.80;;;;;;4998185;28;20034;-66
2023/02/17 08:36:23;;;;;;;9.15;4.13;;;10.30;91.40;;;;;;5016252;28;20026;-66
2023/02/17 08:38:50;;;;;;;10.13;3.63;;;10.30;91.10;;;;;;5016078;28;20033;-68
2023/02/17 08:41:18;;;;;;;7.05;2.83;;;10.40;90.70;;;;;;5016526;28;20076;-67
2023/02/17 08:43:43;;;;;;;7.18;3.47;;;10.40;90.60;;;;;;5017287;28;20033;-67
2023/02/17 08:46:10;;;;;;;8.00;3.33;;;10.30;91.00;;;;;;5015293;28;20410;-67
2023/02/17 08:48:36;;;;;;;7.88;3.15;;;10.30;91.30;;;;;;5017136;28;20113;-67
2023/02/17 08:51:03;;;;;;;8.02;2.90;;;10.40;91.30;;;;;;5015749;28;20106;-67
2023/02/17 08:53:29;;;;;;;10.52;3.20;;;10.40;91.30;;;;;;5016009;28;20054;-68
2023/02/17 08:55:54;;;;;;;6.78;3.05;;;10.40;91.70;;;;;;5016149;28;20096;-67
2023/02/17 08:58:20;;;;;;;6.65;2.78;;;10.40;91.70;;;;;;5017315;28;20085;-67
2023/02/17 09:00:46;;;;;;;7.15;2.78;;;10.40;91.90;;;;;;5014072;28;20022;-68
2023/02/17 09:03:12;;;;;;;6.05;2.75;;;10.30;92.40;;;;;;5016938;28;20323;-67
2023/02/17 09:05:38;;;;;;;6.00;2.65;;;10.40;92.50;;;;;;5015761;28;20053;-67
2023/02/17 09:08:04;;;;;;;6.57;2.67;;;10.40;92.30;;;;;;5015276;28;20053;-67
2023/02/17 09:10:30;;;;;;;6.57;2.42;;;10.50;92.60;;;;;;5014747;28;20034;-67
2023/02/17 09:12:55;;;;;;;10.57;2.78;;;10.60;92.70;;;;;;5013159;28;20517;-67
2023/02/17 09:15:21;;;;;;;5.45;2.47;;;10.70;92.30;;;;;;5012759;28;20030;-67
2023/02/17 09:17:47;;;;;;;6.00;2.47;;;10.60;92.40;;;;;;5016844;28;20026;-69
2023/02/17 09:20:12;;;;;;;5.95;2.90;;;10.60;92.80;;;;;;5015740;28;20061;-68
2023/02/17 09:22:41;;;;;;;7.05;2.40;;;10.60;92.80;;;;;;5016803;28;20026;-67
2023/02/17 09:25:07;;;;;;;7.28;2.60;;;10.80;92.50;;;;;;5016324;28;20034;-67
2023/02/17 09:27:32;;;;;;;6.82;2.67;;;10.90;92.50;;;;;;5015765;28;20399;-68
2023/02/17 09:29:58;;;;;;;6.32;2.58;;;11.20;92.10;;;;;;5014501;28;20030;-68
2023/02/17 09:32:26;;;;;;;6.20;2.00;;;11.30;91.70;;;;;;5013621;28;20030;-68
2023/02/17 09:34:52;;;;;;;6.90;2.55;;;11.70;90.90;;;;;;5015646;28;20037;-68
2023/02/17 09:37:19;;;;;;;5.13;2.55;;;11.60;90.70;;;;;;4996435;28;20070;-67
2023/02/17 09:39:45;;;;;;;6.93;2.42;;;11.30;91.30;;;;;;5015997;28;20030;-68
2023/02/17 09:42:32;;;;;;;6.38;2.50;;;11.20;91.90;;;;;;5015677;28;20022;-67
2023/02/17 09:45:08;;;;;;;7.05;2.70;;;11.10;92.20;;;;;;4996157;28;20076;-67
2023/02/17 09:47:46;;;;;;;8.90;3.28;;;11.20;92.10;;;;;;5014200;28;20144;-67
2023/02/17 09:50:33;;;;;;;7.47;3.03;;;11.10;92.20;;;;;;5012876;28;20379;-68
2023/02/17 09:53:09;;;;;;;5.85;2.72;;;11.00;92.70;;;;;;5014658;28;20040;-68
2023/02/17 09:55:41;;;;;;;6.80;3.05;;;11.10;92.70;;;;;;5014953;28;20453;-69
2023/02/17 09:58:15;;;;;;;8.52;3.33;;;11.20;92.50;;;;;;5016051;28;20065;-67
2023/02/17 10:00:53;;;;;;;8.07;3.30;;;11.10;92.60;;;;;;5013134;28;20025;-68
2023/02/17 10:03:32;;;;;;;8.57;3.30;;;11.20;92.80;;;;;;5016079;28;20113;-67
2023/02/17 10:06:15;;;;;;;6.88;2.90;;;11.20;92.60;;;;;;5015039;28;20080;-67
2023/02/17 10:08:52;;;;;;;8.10;3.10;;;11.00;92.90;;;;;;4998760;28;20501;-67
2023/02/17 10:11:25;;;;;;;6.10;3.00;;;11.10;93.20;;;;;;5015562;28;20421;-67
2023/02/17 10:13:53;;;;;;;9.73;3.43;;;11.10;93.20;;;;;;5015963;28;20053;-68
2023/02/17 10:16:29;;;;;;;7.20;3.45;;;11.20;93.30;;;;;;5013633;28;20314;-67
2023/02/17 10:19:11;;;;;;;6.72;3.40;;;11.30;93.10;;;;;;5020114;28;20034;-67
2023/02/17 10:21:47;;;;;;;7.32;3.42;;;11.40;92.80;;;;;;5019180;28;20041;-67
2023/02/17 10:24:12;;;;;;;6.82;3.08;;;11.50;92.30;;;;;;5019827;28;20304;-67
2023/02/17 10:27:05;;;;;;;7.15;3.45;;;11.60;92.20;;;;;;4999581;28;20036;-68
2023/02/17 10:29:45;;;;;;;8.57;3.42;;;11.60;92.40;;;;;;5009087;28;20049;-67
2023/02/17 10:32:23;;;;;;;8.15;3.75;;;11.70;92.10;;;;;;5019265;28;20399;-67
2023/02/17 10:35:06;;;;;;;8.02;4.20;;;11.70;92.00;;;;;;5000031;28;20022;-67
2023/02/17 10:37:49;;;;;;;6.55;3.53;;;11.90;91.50;;;;;;5015305;28;20026;-67
2023/02/17 10:40:19;;;;;;;8.13;4.03;;;11.70;91.90;;;;;;5019927;28;20333;-68
2023/02/17 10:42:48;;;;;;;8.95;4.07;;;11.70;92.00;;;;;;5017751;28;20026;-67
2023/02/17 10:45:32;;;;;;;8.85;4.20;;;11.70;92.30;;;;;;5018319;28;20054;-67
2023/02/17 10:48:03;;;;;;;8.38;4.00;;;11.80;92.30;;;;;;5018790;28;20100;-67
2023/02/17 10:50:29;;;;;;;6.88;3.38;;;11.80;92.20;;;;;;5019270;28;20026;-68
2023/02/17 10:52:56;;;;;;;6.90;3.33;;;11.80;92.40;;;;;;5018628;28;20021;-67
2023/02/17 10:55:31;;;;;;;9.05;4.10;;;11.70;92.40;;;;;;5019422;28;20053;-68
2023/02/17 10:58:09;;;;;;;8.88;3.65;;;11.80;92.80;;;;;;5016920;28;20037;-68
2023/02/17 11:00:35;;;;;;;8.50;3.58;;;12.20;91.70;;;;;;5018263;28;20095;-68
2023/02/17 11:03:00;;;;;;;5.20;2.90;;;12.00;91.90;;;;;;5018711;28;20029;-67
2023/02/17 11:05:32;;;;;;;6.93;2.85;;;12.00;91.80;;;;;;5019239;28;20418;-67
2023/02/17 11:08:05;;;;;;;6.70;2.53;;;11.90;92.30;;;;;;5002383;28;20478;-68
2023/02/17 11:10:39;;;;;;;7.22;2.88;;;11.90;92.50;;;;;;5018014;28;20092;-68
2023/02/17 11:13:36;;;;;;;6.32;2.50;;;11.80;93.00;;;;;;5018164;28;20029;-67
2023/02/17 11:16:02;;;;;;;7.15;2.20;;;11.90;93.00;;;;;;5001054;28;20339;-67
2023/02/17 11:18:32;;;;;;;5.65;2.53;;;11.90;92.80;;;;;;5019144;28;20037;-67
2023/02/17 11:21:04;;;;;;;5.30;1.95;;;12.00;93.20;;;;;;5018013;28;20032;-67
2023/02/17 11:23:29;;;;;;;5.45;1.80;;;11.90;93.30;;;;;;5018821;28;20034;-66
2023/02/17 11:26:01;;;;;;;5.22;2.10;;;11.90;93.30;;;;;;5017343;28;20018;-66
2023/02/17 11:28:33;;;;;;;5.13;2.17;;;11.90;93.30;;;;;;5001166;28;20030;-66
2023/02/17 11:31:01;;;;;;;4.75;1.88;;;12.10;93.20;;;;;;5016905;28;20028;-66
2023/02/17 11:33:36;;;;;;;6.72;2.17;;;12.40;92.40;;;;;;5015984;28;20107;-68
2023/02/17 11:36:03;;;;;;;9.30;2.53;;;12.40;91.60;;;;;;5018646;28;20072;-68
2023/02/17 11:38:41;;;;;;;5.25;2.05;;;12.30;92.40;;;;;;5016781;28;20330;-68
2023/02/17 11:41:08;;;;;;;4.75;1.80;;;12.20;92.40;;;;;;5017952;28;20030;-68
2023/02/17 11:43:34;;;;;;;4.95;1.75;;;12.10;93.10;;;;;;5017285;28;20033;-68
2023/02/17 11:46:26;;;;;;;7.25;2.60;;;12.00;93.40;;;;;;5016340;28;20370;-68
2023/02/17 11:49:17;;;;;;;7.20;1.60;;;12.00;93.70;;;;;;5017568;28;20041;-67
2023/02/17 11:52:10;;;;;;;3.42;1.52;;;12.10;93.20;;;;;;5016552;28;20030;-67
2023/02/17 11:55:13;;;;;;;5.97;1.95;;;11.90;93.70;;;;;;5008452;28;20052;-67
2023/02/17 11:57:45;;;;;;;3.67;1.70;;;12.00;93.90;;;;;;5016924;28;20061;-67
2023/02/17 12:00:21;;;;;;;4.25;1.75;;;12.00;93.90;;;;;;5017132;28;20030;-68
2023/02/17 12:03:02;;;;;;;4.57;2.22;;;12.00;94.20;;;;;;5000875;28;20041;-67
2023/02/17 12:06:02;;;;;;;5.97;2.17;;;12.00;94.30;;;;;;5018322;28;20104;-67
2023/02/17 12:09:04;;;;;;;4.53;1.92;;;12.10;94.00;;;;;;5013596;28;20026;-68
2023/02/17 12:11:39;;;;;;;6.00;1.90;;;12.20;93.90;;;;;;5017978;28;20276;-68
2023/02/17 12:14:39;;;;;;;4.70;2.08;;;12.20;93.60;;;;;;5017623;28;20033;-67
2023/02/17 12:17:43;;;;;;;4.88;1.88;;;12.20;93.60;;;;;;5016894;28;20502;-67
2023/02/17 12:20:24;;;;;;;4.83;2.30;;;12.20;93.50;;;;;;4998388;28;20444;-67
2023/02/17 12:23:25;;;;;;;4.13;2.00;;;12.20;93.70;;;;;;4996696;28;20285;-67
2023/02/17 12:26:07;;;;;;;9.80;4.97;;;12.20;93.30;;;;;;5016963;28;20080;-68
2023/02/17 12:28:47;;;;;;;7.18;3.78;;;12.00;93.90;;;;;;5016735;28;20138;-67
2023/02/17 12:31:37;;;;;;;5.15;2.35;;;12.00;94.00;;;;;;5016616;28;20022;-68
2023/02/17 12:34:33;;;;;;;42.17;32.80;;;12.00;94.20;;;;;;4999711;28;20056;-69
2023/02/17 12:36:59;;;;;;;19.85;15.85;;;11.90;94.40;;;;;;5005300;28;20095;-68
2023/02/17 12:39:37;;;;;;;5.35;3.30;;;11.70;94.60;;;;;;5016662;28;20304;-67
2023/02/17 12:42:25;;;;;;;6.18;2.80;;;11.70;94.90;;;;;;5015928;28;20026;-67
2023/02/17 12:44:55;;;;;;;4.53;2.25;;;11.70;95.00;;;;;;5015385;28;20037;-68
2023/02/17 12:47:29;;;;;;;4.55;1.77;;;11.70;95.10;;;;;;5016393;28;20026;-68
2023/02/17 12:50:19;;;;;;;3.90;1.45;;;11.70;95.10;;;;;;5017494;28;20026;-68
2023/02/17 12:52:50;;;;;;;5.75;3.72;;;11.80;95.00;;;;;;5015029;28;20339;-68
2023/02/17 12:55:23;;;;;;;16.10;13.70;;;11.80;94.80;;;;;;5014997;28;20141;-67
2023/02/17 12:57:57;;;;;;;7.47;4.78;;;11.90;94.80;;;;;;5015622;28;20089;-68
2023/02/17 13:00:47;;;;;;;4.28;1.83;;;12.10;94.50;;;;;;5010250;28;20120;-67
2023/02/17 13:03:12;;;;;;;3.42;1.80;;;12.10;94.20;;;;;;5015880;28;20038;-68
2023/02/17 13:06:10;;;;;;;4.50;2.22;;;12.00;94.40;;;;;;5015176;28;20034;-68
2023/02/17 13:08:49;;;;;;;3.50;1.65;;;12.00;94.60;;;;;;5015531;28;20041;-68
2023/02/17 13:11:27;;;;;;;5.25;1.50;;;11.90;94.60;;;;;;5016917;28;20033;-68